»·PEaware :: N2612J KTSP-KUDD

N2612J :: KTSP-KUDD

FLIGHT INFORMATION

Flight Status: Arrived
Operator: Privately registered:
United States
More flights under this callsign
Pilot: Andrew F. (4171)
Aircraft: DEHAVILLAND DH-6 TWIN OTTER
(DHC6)
More flights by this aircraft type
Origin: KTSP Tehachapi Mun
United States
Destination: KUDD Bermuda Dunes
United States
More flights between these airports :: More routes between these airports
Route: DIRECT
File this flight plan on PilotEdge
Remarks:
Altitude:
(Current/Filed)
11,500ft
Speed:
(Current/Filed)
140kts
Departed: 01-Jan-16 04:24 PM
Arrived: 01-Jan-16 05:29 PM
Distance/Time
Traveled:
136nm/1:05
Distance/Time
To Go:
Arrived

Flight Plot

Page will automatically refresh every two minutes.


Map Options




Map Legend


Flown Route
Filed Route
Departure Airport
Arrival Airport
Navaid (VOR, NDB)
Fix

Horizontal Profiles

Position Reports

Time Latitude Longitude Heading Altitude Ground
Speed
01-Jan-16 16:04 35.133057 -118.439145 214 4010ft 0kts
01-Jan-16 16:05 35.133057 -118.439145 214 4010ft 0kts
01-Jan-16 16:06 35.133057 -118.439145 214 4010ft 0kts
01-Jan-16 16:12 35.132910 -118.438861 214 4010ft 0kts
01-Jan-16 16:13 35.132909 -118.438862 214 4010ft 0kts
01-Jan-16 16:14 35.132861 -118.438637 9 4010ft 0kts
01-Jan-16 16:15 35.132861 -118.438637 9 4010ft 0kts
01-Jan-16 16:16 35.133825 -118.439666 305 4010ft 9kts
01-Jan-16 16:17 35.135609 -118.441451 306 4010ft 8kts
01-Jan-16 16:18 35.137052 -118.443928 304 4010ft 11kts
01-Jan-16 16:19 35.137847 -118.444852 30 4010ft 0kts
01-Jan-16 16:20 35.137354 -118.443457 121 4010ft 49kts
01-Jan-16 16:21 35.121906 -118.416941 121 5404ft 101kts
01-Jan-16 16:22 35.106121 -118.387004 122 7075ft 107kts
01-Jan-16 16:23 35.085435 -118.364241 168 8771ft 103kts
01-Jan-16 16:24 35.059451 -118.348738 155 10423ft 103kts
01-Jan-16 16:25 35.033177 -118.329733 162 11590ft 131kts
01-Jan-16 16:26 34.992849 -118.307432 164 11534ft 171kts
01-Jan-16 16:27 34.949563 -118.281385 158 11536ft 174kts
01-Jan-16 16:28 34.907472 -118.250709 156 11541ft 176kts
01-Jan-16 16:29 34.865194 -118.220633 158 11546ft 175kts
01-Jan-16 16:30 34.822185 -118.192407 160 11550ft 175kts
01-Jan-16 16:31 34.779195 -118.163842 158 11550ft 177kts
01-Jan-16 16:32 34.736244 -118.134255 158 11562ft 177kts
01-Jan-16 16:33 34.692775 -118.105147 158 11551ft 178kts
01-Jan-16 16:34 34.649432 -118.075950 158 11552ft 177kts
01-Jan-16 16:35 34.606859 -118.044685 152 11554ft 181kts
01-Jan-16 16:36 34.573918 -117.999740 106 11561ft 191kts
01-Jan-16 16:37 34.568211 -117.935900 95 11538ft 188kts
01-Jan-16 16:38 34.550574 -117.880517 133 11540ft 177kts
01-Jan-16 16:39 34.526111 -117.827551 120 11529ft 181kts
01-Jan-16 16:40 34.504075 -117.772940 121 11533ft 180kts
01-Jan-16 16:41 34.481757 -117.718181 117 11520ft 181kts
01-Jan-16 16:42 34.462453 -117.661612 116 11510ft 181kts
01-Jan-16 16:43 34.443226 -117.604995 117 11525ft 181kts
01-Jan-16 16:44 34.423433 -117.548729 117 11521ft 181kts
01-Jan-16 16:45 34.403641 -117.492459 117 11521ft 181kts
01-Jan-16 16:46 34.383921 -117.436235 118 11519ft 181kts
01-Jan-16 16:47 34.364358 -117.379815 116 11516ft 181kts
01-Jan-16 16:48 34.348036 -117.332599 116 11516ft 182kts
01-Jan-16 16:49 34.326675 -117.277296 119 11511ft 181kts
01-Jan-16 16:50 34.304655 -117.222432 120 11499ft 180kts
01-Jan-16 16:51 34.282416 -117.168208 120 11496ft 179kts
01-Jan-16 16:52 34.260115 -117.113960 119 11497ft 180kts
01-Jan-16 16:53 34.237975 -117.059513 126 11494ft 178kts
01-Jan-16 16:54 34.212745 -117.007472 121 11489ft 180kts
01-Jan-16 16:55 34.189845 -116.953324 119 11488ft 180kts
01-Jan-16 16:56 34.167432 -116.898990 120 11474ft 179kts
01-Jan-16 16:57 34.144778 -116.845022 119 11484ft 180kts
01-Jan-16 16:58 34.122448 -116.791079 119 11488ft 178kts
01-Jan-16 16:59 34.100087 -116.736718 119 11506ft 181kts
01-Jan-16 17:00 34.077572 -116.682163 119 11478ft 180kts
01-Jan-16 17:01 34.055344 -116.628102 119 11486ft 179kts
01-Jan-16 17:02 34.032926 -116.573977 119 11508ft 180kts
01-Jan-16 17:03 34.009083 -116.518147 119 10903ft 195kts
01-Jan-16 17:04 33.984641 -116.460410 117 9916ft 187kts
01-Jan-16 17:05 33.962096 -116.405218 116 8941ft 179kts
01-Jan-16 17:06 33.940366 -116.352034 116 7967ft 174kts
01-Jan-16 17:07 33.919969 -116.301915 115 7511ft 155kts
01-Jan-16 17:08 33.901613 -116.256267 116 7504ft 148kts
01-Jan-16 17:09 33.883457 -116.212485 117 7511ft 144kts
01-Jan-16 17:10 33.865015 -116.168863 116 7505ft 146kts
01-Jan-16 17:11 33.845926 -116.123527 116 7492ft 153kts
01-Jan-16 17:12 33.827661 -116.079182 115 7507ft 145kts
01-Jan-16 17:13 33.809524 -116.034034 114 7484ft 151kts
01-Jan-16 17:14 33.775930 -116.022719 194 7180ft 152kts
01-Jan-16 17:15 33.733398 -116.031139 185 6481ft 150kts
01-Jan-16 17:16 33.693590 -116.036160 201 6011ft 142kts
01-Jan-16 17:17 33.661289 -116.067116 216 5319ft 145kts
01-Jan-16 17:18 33.632060 -116.095595 221 4431ft 118kts
01-Jan-16 17:19 33.644544 -116.121529 316 3441ft 100kts
01-Jan-16 17:20 33.662859 -116.146664 311 2462ft 100kts
01-Jan-16 17:21 33.678760 -116.169099 312 2355ft 91kts
01-Jan-16 17:22 33.699478 -116.198603 310 1909ft 126kts
01-Jan-16 17:23 33.721855 -116.230187 316 1186ft 119kts
01-Jan-16 17:24 33.740406 -116.254436 292 293ft 90kts
01-Jan-16 17:25 33.749133 -116.276530 296 82ft 36kts
01-Jan-16 17:26 33.749223 -116.278541 117 82ft 8kts
01-Jan-16 17:27 33.747942 -116.275348 115 82ft 11kts
01-Jan-16 17:28 33.746220 -116.272392 150 82ft 7kts
01-Jan-16 17:29 33.745803 -116.271457 117 82ft 0kts
01-Jan-16 17:30 33.745803 -116.271457 117 82ft 0kts
01-Jan-16 17:31 33.745803 -116.271457 117 82ft 0kts

Navigation Log

Ident Type
Flight plan parsing failed, navigation log unavailable